sensor_id;sensor_type;location;lat;lon;timestamp;pressure;altitude;pressure_sealevel;temperature;humidity
2268;BME280;11052;43.338;25.502;2023-11-19T00:01:34;100441.91;;;5.20;100.00
2268;BME280;11052;43.338;25.502;2023-11-19T00:04:04;100438.47;;;5.24;100.00
2268;BME280;11052;43.338;25.502;2023-11-19T00:06:31;100447.84;;;5.32;100.00
2268;BME280;11052;43.338;25.502;2023-11-19T00:08:58;100449.59;;;5.25;100.00
2268;BME280;11052;43.338;25.502;2023-11-19T00:11:25;100449.59;;;5.22;100.00
2268;BME280;11052;43.338;25.502;2023-11-19T00:13:53;100441.94;;;5.19;100.00
2268;BME280;11052;43.338;25.502;2023-11-19T00:16:20;100444.47;;;5.20;100.00
2268;BME280;11052;43.338;25.502;2023-11-19T00:18:47;100450.44;;;5.24;100.00
2268;BME280;11052;43.338;25.502;2023-11-19T00:21:17;100453.09;;;5.18;100.00
2268;BME280;11052;43.338;25.502;2023-11-19T00:23:44;100458.22;;;5.18;100.00
2268;BME280;11052;43.338;25.502;2023-11-19T00:26:11;100459.03;;;5.23;100.00
2268;BME280;11052;43.338;25.502;2023-11-19T00:28:40;100454.78;;;5.19;100.00
2268;BME280;11052;43.338;25.502;2023-11-19T00:31:08;100455.59;;;5.24;100.00
2268;BME280;11052;43.338;25.502;2023-11-19T00:33:35;100447.94;;;5.19;100.00
2268;BME280;11052;43.338;25.502;2023-11-19T00:36:03;100449.69;;;5.14;100.00
2268;BME280;11052;43.338;25.502;2023-11-19T00:38:32;100441.03;;;5.21;100.00
2268;BME280;11052;43.338;25.502;2023-11-19T00:40:59;100446.22;;;5.18;100.00
2268;BME280;11052;43.338;25.502;2023-11-19T00:43:28;100445.44;;;5.10;100.00
2268;BME280;11052;43.338;25.502;2023-11-19T00:45:55;100446.31;;;5.05;100.00
2268;BME280;11052;43.338;25.502;2023-11-19T00:48:22;100445.41;;;5.12;100.00
2268;BME280;11052;43.338;25.502;2023-11-19T00:50:49;100443.72;;;5.08;100.00
2268;BME280;11052;43.338;25.502;2023-11-19T00:53:16;100437.75;;;5.03;100.00
2268;BME280;11052;43.338;25.502;2023-11-19T00:55:45;100434.28;;;5.11;100.00
2268;BME280;11052;43.338;25.502;2023-11-19T00:58:12;100430.03;;;5.06;100.00
2268;BME280;11052;43.338;25.502;2023-11-19T01:00:39;100436.00;;;5.08;100.00
2268;BME280;11052;43.338;25.502;2023-11-19T01:03:06;100438.59;;;5.05;100.00
2268;BME280;11052;43.338;25.502;2023-11-19T01:05:33;100431.75;;;5.04;100.00
2268;BME280;11052;43.338;25.502;2023-11-19T01:08:01;100421.47;;;5.05;100.00
2268;BME280;11052;43.338;25.502;2023-11-19T01:10:30;100427.47;;;5.03;100.00
2268;BME280;11052;43.338;25.502;2023-11-19T01:12:59;100427.50;;;5.00;100.00
2268;BME280;11052;43.338;25.502;2023-11-19T01:15:26;100430.09;;;4.97;100.00
2268;BME280;11052;43.338;25.502;2023-11-19T01:17:53;100431.81;;;4.91;100.00
2268;BME280;11052;43.338;25.502;2023-11-19T01:20:20;100432.66;;;4.93;100.00
2268;BME280;11052;43.338;25.502;2023-11-19T01:22:47;100439.50;;;4.99;100.00
2268;BME280;11052;43.338;25.502;2023-11-19T01:25:15;100436.94;;;4.94;100.00
2268;BME280;11052;43.338;25.502;2023-11-19T01:27:42;100445.50;;;4.97;100.00
2268;BME280;11052;43.338;25.502;2023-11-19T01:30:12;100448.94;;;4.96;100.00
2268;BME280;11052;43.338;25.502;2023-11-19T01:32:39;100455.75;;;5.00;100.00
2268;BME280;11052;43.338;25.502;2023-11-19T01:35:07;100448.88;;;5.05;100.00
2268;BME280;11052;43.338;25.502;2023-11-19T01:37:35;100438.63;;;4.99;100.00
2268;BME280;11052;43.338;25.502;2023-11-19T01:40:02;100440.34;;;5.00;100.00
2268;BME280;11052;43.338;25.502;2023-11-19T01:42:30;100450.63;;;5.00;100.00
2268;BME280;11052;43.338;25.502;2023-11-19T01:45:03;100459.19;;;4.96;100.00
2268;BME280;11052;43.338;25.502;2023-11-19T01:47:34;100450.66;;;4.87;100.00
2268;BME280;11052;43.338;25.502;2023-11-19T01:50:02;100452.34;;;4.93;100.00
2268;BME280;11052;43.338;25.502;2023-11-19T01:52:32;100446.34;;;4.97;100.00
2268;BME280;11052;43.338;25.502;2023-11-19T01:55:02;100444.63;;;4.96;100.00
2268;BME280;11052;43.338;25.502;2023-11-19T01:57:30;100448.91;;;4.99;100.00
2268;BME280;11052;43.338;25.502;2023-11-19T01:59:58;100444.63;;;4.96;100.00
2268;BME280;11052;43.338;25.502;2023-11-19T02:02:25;100442.91;;;5.01;100.00
2268;BME280;11052;43.338;25.502;2023-11-19T02:04:54;100438.63;;;4.97;100.00
2268;BME280;11052;43.338;25.502;2023-11-19T02:07:21;100436.94;;;4.94;100.00
2268;BME280;11052;43.338;25.502;2023-11-19T02:09:48;100445.50;;;4.95;100.00
2268;BME280;11052;43.338;25.502;2023-11-19T02:12:15;100440.34;;;4.97;100.00
2268;BME280;11052;43.338;25.502;2023-11-19T02:14:42;100439.53;;;4.91;100.00
2268;BME280;11052;43.338;25.502;2023-11-19T02:17:25;100447.22;;;4.94;100.00
2268;BME280;11052;43.338;25.502;2023-11-19T02:19:54;100455.75;;;4.98;100.00
2268;BME280;11052;43.338;25.502;2023-11-19T02:22:22;100443.78;;;4.96;100.00
2268;BME280;11052;43.338;25.502;2023-11-19T02:24:51;100441.25;;;4.86;100.00
2268;BME280;11052;43.338;25.502;2023-11-19T02:27:37;100442.91;;;4.98;100.00
2268;BME280;11052;43.338;25.502;2023-11-19T02:30:05;100444.63;;;4.98;100.00
2268;BME280;11052;43.338;25.502;2023-11-19T02:32:34;100450.63;;;5.00;100.00
2268;BME280;11052;43.338;25.502;2023-11-19T02:35:01;100462.53;;;5.11;100.00
2268;BME280;11052;43.338;25.502;2023-11-19T02:37:28;100457.44;;;5.02;100.00
2268;BME280;11052;43.338;25.502;2023-11-19T02:39:55;100462.63;;;4.98;100.00
2268;BME280;11052;43.338;25.502;2023-11-19T02:42:28;100463.50;;;4.89;100.00
2268;BME280;11052;43.338;25.502;2023-11-19T02:44:57;100478.88;;;4.95;100.00
2268;BME280;11052;43.338;25.502;2023-11-19T02:47:24;100476.31;;;5.00;100.00
2268;BME280;11052;43.338;25.502;2023-11-19T02:49:51;100473.78;;;4.87;100.00
2268;BME280;11052;43.338;25.502;2023-11-19T02:52:19;100478.06;;;4.91;100.00
2268;BME280;11052;43.338;25.502;2023-11-19T02:54:46;100474.59;;;4.96;100.00
2268;BME280;11052;43.338;25.502;2023-11-19T02:57:13;100479.75;;;4.92;100.00
2268;BME280;11052;43.338;25.502;2023-11-19T02:59:40;100478.03;;;4.96;100.00
2268;BME280;11052;43.338;25.502;2023-11-19T03:02:10;100484.03;;;4.92;100.00
2268;BME280;11052;43.338;25.502;2023-11-19T03:04:38;100490.91;;;4.87;100.00
2268;BME280;11052;43.338;25.502;2023-11-19T03:07:06;100493.47;;;4.88;100.00
2268;BME280;11052;43.338;25.502;2023-11-19T03:09:34;100500.28;;;4.96;100.00
2268;BME280;11052;43.338;25.502;2023-11-19T03:12:01;100495.16;;;4.99;100.00
2268;BME280;11052;43.338;25.502;2023-11-19T03:14:30;100510.56;;;4.96;100.00
2268;BME280;11052;43.338;25.502;2023-11-19T03:16:58;100497.78;;;4.82;100.00
2268;BME280;11052;43.338;25.502;2023-11-19T03:19:26;100502.03;;;4.90;100.00
2268;BME280;11052;43.338;25.502;2023-11-19T03:21:53;100508.84;;;4.96;100.00
2268;BME280;11052;43.338;25.502;2023-11-19T03:24:21;100504.56;;;4.97;100.00
2268;BME280;11052;43.338;25.502;2023-11-19T03:26:48;100496.03;;;4.93;100.00
2268;BME280;11052;43.338;25.502;2023-11-19T03:29:16;100508.88;;;4.93;100.00
2268;BME280;11052;43.338;25.502;2023-11-19T03:31:44;100505.44;;;4.94;100.00
2268;BME280;11052;43.338;25.502;2023-11-19T03:34:11;100506.28;;;4.94;100.00
2268;BME280;11052;43.338;25.502;2023-11-19T03:36:40;100509.75;;;4.86;100.00
2268;BME280;11052;43.338;25.502;2023-11-19T03:39:07;100502.91;;;4.86;100.00
2268;BME280;11052;43.338;25.502;2023-11-19T03:41:34;100500.31;;;4.92;100.00
2268;BME280;11052;43.338;25.502;2023-11-19T03:44:01;100503.75;;;4.85;100.00
2268;BME280;11052;43.338;25.502;2023-11-19T03:46:28;100505.47;;;4.86;100.00
2268;BME280;11052;43.338;25.502;2023-11-19T03:48:56;100508.00;;;4.94;100.00
2268;BME280;11052;43.338;25.502;2023-11-19T03:51:23;100513.16;;;4.86;100.00
2268;BME280;11052;43.338;25.502;2023-11-19T03:53:52;100511.44;;;4.91;100.00
2268;BME280;11052;43.338;25.502;2023-11-19T03:56:19;100518.31;;;4.88;100.00
2268;BME280;11052;43.338;25.502;2023-11-19T03:58:46;100511.47;;;4.82;100.00
2268;BME280;11052;43.338;25.502;2023-11-19T04:01:16;100519.19;;;4.82;100.00
2268;BME280;11052;43.338;25.502;2023-11-19T04:03:44;100517.47;;;4.81;100.00
2268;BME280;11052;43.338;25.502;2023-11-19T04:06:11;100525.16;;;4.87;100.00
2268;BME280;11052;43.338;25.502;2023-11-19T04:08:38;100537.13;;;4.87;100.00
2268;BME280;11052;43.338;25.502;2023-11-19T04:11:07;100545.72;;;4.84;100.00
2268;BME280;11052;43.338;25.502;2023-11-19T04:13:35;100547.41;;;4.87;100.00
2268;BME280;11052;43.338;25.502;2023-11-19T04:16:02;100544.84;;;4.88;100.00
2268;BME280;11052;43.338;25.502;2023-11-19T04:18:30;100554.25;;;4.88;100.00
2268;BME280;11052;43.338;25.502;2023-11-19T04:20:57;100549.97;;;4.88;100.00
2268;BME280;11052;43.338;25.502;2023-11-19T04:23:25;100544.00;;;4.85;100.00
2268;BME280;11052;43.338;25.502;2023-11-19T04:25:52;100553.44;;;4.78;100.00
2268;BME280;11052;43.338;25.502;2023-11-19T04:28:20;100552.56;;;4.84;100.00
2268;BME280;11052;43.338;25.502;2023-11-19T04:30:48;100553.41;;;4.81;100.00
2268;BME280;11052;43.338;25.502;2023-11-19T04:33:15;100567.13;;;4.82;100.00
2268;BME280;11052;43.338;25.502;2023-11-19T04:35:42;100564.56;;;4.79;100.00
2268;BME280;11052;43.338;25.502;2023-11-19T04:38:09;100565.44;;;4.67;100.00
2268;BME280;11052;43.338;25.502;2023-11-19T04:40:36;100568.84;;;4.68;100.00
2268;BME280;11052;43.338;25.502;2023-11-19T04:43:03;100568.84;;;4.77;100.00
2268;BME280;11052;43.338;25.502;2023-11-19T04:45:32;100576.53;;;4.80;100.00
2268;BME280;11052;43.338;25.502;2023-11-19T04:47:59;100578.25;;;4.76;100.00
2268;BME280;11052;43.338;25.502;2023-11-19T04:50:26;100585.97;;;4.73;100.00
2268;BME280;11052;43.338;25.502;2023-11-19T04:52:54;100585.09;;;4.77;100.00
2268;BME280;11052;43.338;25.502;2023-11-19T04:55:21;100585.13;;;4.70;100.00
2268;BME280;11052;43.338;25.502;2023-11-19T04:57:48;100598.81;;;4.73;100.00
2268;BME280;11052;43.338;25.502;2023-11-19T05:00:16;100600.53;;;4.68;100.00
2268;BME280;11052;43.338;25.502;2023-11-19T05:02:44;100603.94;;;4.63;100.00
2268;BME280;11052;43.338;25.502;2023-11-19T05:05:12;100603.09;;;4.70;100.00
2268;BME280;11052;43.338;25.502;2023-11-19T05:07:39;100604.81;;;4.71;100.00
2268;BME280;11052;43.338;25.502;2023-11-19T05:10:07;100615.94;;;4.59;100.00
2268;BME280;11052;43.338;25.502;2023-11-19T05:12:34;100609.09;;;4.58;100.00
2268;BME280;11052;43.338;25.502;2023-11-19T05:15:01;100616.78;;;4.63;100.00
2268;BME280;11052;43.338;25.502;2023-11-19T05:17:28;100621.91;;;4.73;100.00
2268;BME280;11052;43.338;25.502;2023-11-19T05:19:57;100621.91;;;4.69;100.00
2268;BME280;11052;43.338;25.502;2023-11-19T05:22:24;100628.75;;;4.68;100.00
2268;BME280;11052;43.338;25.502;2023-11-19T05:24:52;100627.06;;;4.67;100.00
2268;BME280;11052;43.338;25.502;2023-11-19T05:27:20;100640.75;;;4.68;100.00
2268;BME280;11052;43.338;25.502;2023-11-19T05:29:47;100645.03;;;4.69;100.00
2268;BME280;11052;43.338;25.502;2023-11-19T05:32:14;100638.19;;;4.75;100.00
2268;BME280;11052;43.338;25.502;2023-11-19T05:34:42;100633.03;;;4.69;100.00
2268;BME280;11052;43.338;25.502;2023-11-19T05:37:10;100631.34;;;4.67;100.00
2268;BME280;11052;43.338;25.502;2023-11-19T05:39:37;100637.31;;;4.58;100.00
2268;BME280;11052;43.338;25.502;2023-11-19T05:42:05;100639.03;;;4.62;100.00
2268;BME280;11052;43.338;25.502;2023-11-19T05:44:32;100646.75;;;4.62;100.00
2268;BME280;11052;43.338;25.502;2023-11-19T05:46:59;100651.88;;;4.65;100.00
2268;BME280;11052;43.338;25.502;2023-11-19T05:49:26;100653.59;;;4.65;100.00
2268;BME280;11052;43.338;25.502;2023-11-19T05:51:53;100647.59;;;4.58;100.00
2268;BME280;11052;43.338;25.502;2023-11-19T05:54:23;100639.91;;;4.56;100.00
2268;BME280;11052;43.338;25.502;2023-11-19T05:56:50;100645.88;;;4.68;100.00
2268;BME280;11052;43.338;25.502;2023-11-19T05:59:19;100645.03;;;4.63;100.00
2268;BME280;11052;43.338;25.502;2023-11-19T06:01:48;100645.03;;;4.63;100.00
2268;BME280;11052;43.338;25.502;2023-11-19T06:04:15;100657.00;;;4.62;100.00
2268;BME280;11052;43.338;25.502;2023-11-19T06:06:42;100656.16;;;4.63;100.00
2268;BME280;11052;43.338;25.502;2023-11-19T06:09:09;100661.28;;;4.54;100.00
2268;BME280;11052;43.338;25.502;2023-11-19T06:11:39;100664.72;;;4.64;100.00
2268;BME280;11052;43.338;25.502;2023-11-19T06:14:06;100662.16;;;4.60;100.00
2268;BME280;11052;43.338;25.502;2023-11-19T06:16:33;100663.00;;;4.70;100.00
2268;BME280;11052;43.338;25.502;2023-11-19T06:19:00;100669.84;;;4.62;100.00
2268;BME280;11052;43.338;25.502;2023-11-19T06:21:27;100674.13;;;4.63;100.00
2268;BME280;11052;43.338;25.502;2023-11-19T06:23:54;100675.84;;;4.75;100.00
2268;BME280;11052;43.338;25.502;2023-11-19T06:26:21;100678.41;;;4.78;100.00
2268;BME280;11052;43.338;25.502;2023-11-19T06:28:50;100668.13;;;4.75;100.00
2268;BME280;11052;43.338;25.502;2023-11-19T06:31:17;100663.00;;;4.84;100.00
2268;BME280;11052;43.338;25.502;2023-11-19T06:33:44;100673.28;;;4.79;100.00
2268;BME280;11052;43.338;25.502;2023-11-19T06:36:14;100674.97;;;4.82;100.00
2268;BME280;11052;43.338;25.502;2023-11-19T06:38:42;100687.81;;;4.86;100.00
2268;BME280;11052;43.338;25.502;2023-11-19T06:41:09;100689.53;;;4.89;100.00
2268;BME280;11052;43.338;25.502;2023-11-19T06:43:37;100690.38;;;4.92;100.00
2268;BME280;11052;43.338;25.502;2023-11-19T06:46:14;100699.81;;;4.93;100.00
2268;BME280;11052;43.338;25.502;2023-11-19T06:48:41;100696.38;;;4.96;100.00
2268;BME280;11052;43.338;25.502;2023-11-19T06:51:09;100687.81;;;5.02;100.00
2268;BME280;11052;43.338;25.502;2023-11-19T06:53:36;100685.25;;;5.03;100.00
2268;BME280;11052;43.338;25.502;2023-11-19T06:56:06;100686.94;;;5.12;100.00
2268;BME280;11052;43.338;25.502;2023-11-19T06:58:36;100693.78;;;5.07;100.00
2268;BME280;11052;43.338;25.502;2023-11-19T07:01:08;100692.94;;;5.14;100.00
2268;BME280;11052;43.338;25.502;2023-11-19T07:03:35;100686.94;;;5.12;100.00
2268;BME280;11052;43.338;25.502;2023-11-19T07:06:02;100690.34;;;5.17;100.00
2268;BME280;11052;43.338;25.502;2023-11-19T07:08:31;100689.50;;;5.18;100.00
2268;BME280;11052;43.338;25.502;2023-11-19T07:10:58;100698.91;;;5.19;100.00
2268;BME280;11052;43.338;25.502;2023-11-19T07:13:25;100714.28;;;5.31;100.00
2268;BME280;11052;43.338;25.502;2023-11-19T07:15:53;100728.00;;;5.36;100.00
2268;BME280;11052;43.338;25.502;2023-11-19T07:18:22;100723.69;;;5.37;100.00
2268;BME280;11052;43.338;25.502;2023-11-19T07:20:49;100727.13;;;5.42;100.00
2268;BME280;11052;43.338;25.502;2023-11-19T07:23:16;100733.09;;;5.45;100.00
2268;BME280;11052;43.338;25.502;2023-11-19T07:25:44;100732.22;;;5.63;100.00
2268;BME280;11052;43.338;25.502;2023-11-19T07:28:12;100729.63;;;5.68;100.00
2268;BME280;11052;43.338;25.502;2023-11-19T07:30:40;100730.44;;;5.80;100.00
2268;BME280;11052;43.338;25.502;2023-11-19T07:33:07;100734.72;;;5.86;100.00
2268;BME280;11052;43.338;25.502;2023-11-19T07:35:36;100741.56;;;5.91;100.00
2268;BME280;11052;43.338;25.502;2023-11-19T07:38:03;100736.38;;;6.02;100.00
2268;BME280;11052;43.338;25.502;2023-11-19T07:40:31;100735.47;;;6.09;100.00
2268;BME280;11052;43.338;25.502;2023-11-19T07:42:58;100737.91;;;6.34;100.00
2268;BME280;11052;43.338;25.502;2023-11-19T07:45:25;100736.25;;;6.27;100.00
2268;BME280;11052;43.338;25.502;2023-11-19T07:47:53;100735.38;;;6.28;100.00
2268;BME280;11052;43.338;25.502;2023-11-19T07:50:20;100726.72;;;6.42;100.00
2268;BME280;11052;43.338;25.502;2023-11-19T07:52:49;100741.47;;;6.11;100.00
2268;BME280;11052;43.338;25.502;2023-11-19T07:55:16;100741.47;;;6.08;100.00
2268;BME280;11052;43.338;25.502;2023-11-19T07:57:43;100749.09;;;6.30;100.00
2268;BME280;11052;43.338;25.502;2023-11-19T08:00:11;100737.84;;;6.46;100.00
2268;BME280;11052;43.338;25.502;2023-11-19T08:02:39;100759.94;;;6.79;100.00
2268;BME280;11052;43.338;25.502;2023-11-19T08:05:07;100754.56;;;7.05;100.00
2268;BME280;11052;43.338;25.502;2023-11-19T08:07:34;100750.16;;;7.19;100.00
2268;BME280;11052;43.338;25.502;2023-11-19T08:10:04;100748.22;;;7.41;100.00
2268;BME280;11052;43.338;25.502;2023-11-19T08:12:35;100751.47;;;7.61;100.00
2268;BME280;11052;43.338;25.502;2023-11-19T08:15:03;100749.03;;;7.47;100.00
2268;BME280;11052;43.338;25.502;2023-11-19T08:17:30;100745.38;;;7.67;100.00
2268;BME280;11052;43.338;25.502;2023-11-19T08:19:57;100744.28;;;7.84;100.00
2268;BME280;11052;43.338;25.502;2023-11-19T08:22:26;100751.81;;;8.03;100.00
2268;BME280;11052;43.338;25.502;2023-11-19T08:24:53;100753.34;;;8.17;100.00
2268;BME280;11052;43.338;25.502;2023-11-19T08:27:21;100751.69;;;8.13;100.00
2268;BME280;11052;43.338;25.502;2023-11-19T08:29:53;100750.13;;;8.00;100.00
2268;BME280;11052;43.338;25.502;2023-11-19T08:32:21;100754.44;;;8.00;100.00
2268;BME280;11052;43.338;25.502;2023-11-19T08:34:48;100761.09;;;8.17;100.00
2268;BME280;11052;43.338;25.502;2023-11-19T08:37:15;100761.81;;;8.29;100.00
2268;BME280;11052;43.338;25.502;2023-11-19T08:39:46;100763.53;;;8.30;100.00
2268;BME280;11052;43.338;25.502;2023-11-19T08:42:13;100760.81;;;8.42;100.00
2268;BME280;11052;43.338;25.502;2023-11-19T08:44:43;100754.09;;;8.27;100.00
2268;BME280;11052;43.338;25.502;2023-11-19T08:47:13;100749.03;;;8.18;100.00
2268;BME280;11052;43.338;25.502;2023-11-19T08:49:41;100749.69;;;8.37;100.00
2268;BME280;11052;43.338;25.502;2023-11-19T08:52:08;100740.00;;;8.51;100.00
2268;BME280;11052;43.338;25.502;2023-11-19T08:54:36;100742.41;;;8.63;100.00
2268;BME280;11052;43.338;25.502;2023-11-19T08:57:03;100737.03;;;8.75;100.00
2268;BME280;11052;43.338;25.502;2023-11-19T08:59:32;100735.28;;;8.76;100.00
2268;BME280;11052;43.338;25.502;2023-11-19T09:02:01;100735.34;;;8.73;100.00
2268;BME280;11052;43.338;25.502;2023-11-19T09:04:28;100741.00;;;8.96;100.00
2268;BME280;11052;43.338;25.502;2023-11-19T09:06:57;100740.91;;;9.02;100.00
2268;BME280;11052;43.338;25.502;2023-11-19T09:09:25;100747.66;;;9.11;100.00
2268;BME280;11052;43.338;25.502;2023-11-19T09:11:52;100745.03;;;9.14;100.00
2268;BME280;11052;43.338;25.502;2023-11-19T09:14:19;100743.38;;;9.10;100.00
2268;BME280;11052;43.338;25.502;2023-11-19T09:16:49;100747.19;;;8.87;100.00
2268;BME280;11052;43.338;25.502;2023-11-19T09:19:18;100746.94;;;9.03;100.00
2268;BME280;11052;43.338;25.502;2023-11-19T09:21:49;100749.13;;;9.26;100.00
2268;BME280;11052;43.338;25.502;2023-11-19T09:24:16;100745.44;;;9.39;100.00
2268;BME280;11052;43.338;25.502;2023-11-19T09:26:43;100748.97;;;9.35;100.00
2268;BME280;11052;43.338;25.502;2023-11-19T09:29:10;100746.50;;;9.29;100.00
2268;BME280;11052;43.338;25.502;2023-11-19T09:31:40;100739.59;;;9.29;100.00
2268;BME280;11052;43.338;25.502;2023-11-19T09:34:07;100732.16;;;9.56;100.00
2268;BME280;11052;43.338;25.502;2023-11-19T09:36:36;100735.75;;;9.50;100.00
2268;BME280;11052;43.338;25.502;2023-11-19T09:39:03;100734.56;;;9.66;100.00
2268;BME280;11052;43.338;25.502;2023-11-19T09:41:31;100731.00;;;9.72;100.00
2268;BME280;11052;43.338;25.502;2023-11-19T09:44:00;100726.09;;;10.01;100.00
2268;BME280;11052;43.338;25.502;2023-11-19T09:46:28;100722.59;;;10.02;100.00
2268;BME280;11052;43.338;25.502;2023-11-19T09:48:57;100720.78;;;10.07;100.00
2268;BME280;11052;43.338;25.502;2023-11-19T09:51:25;100724.34;;;10.02;100.00
2268;BME280;11052;43.338;25.502;2023-11-19T09:53:54;100721.34;;;9.80;100.00
2268;BME280;11052;43.338;25.502;2023-11-19T09:56:22;100715.56;;;9.67;100.00
2268;BME280;11052;43.338;25.502;2023-11-19T09:58:50;100711.28;;;9.65;100.00
2268;BME280;11052;43.338;25.502;2023-11-19T10:01:17;100705.25;;;9.21;100.00
2268;BME280;11052;43.338;25.502;2023-11-19T10:03:46;100720.91;;;9.12;100.00
2268;BME280;11052;43.338;25.502;2023-11-19T10:06:14;100713.81;;;9.23;100.00
2268;BME280;11052;43.338;25.502;2023-11-19T10:08:42;100703.19;;;8.89;100.00
2268;BME280;11052;43.338;25.502;2023-11-19T10:11:11;100706.88;;;8.76;100.00
2268;BME280;11052;43.338;25.502;2023-11-19T10:13:39;100706.50;;;8.97;100.00
2268;BME280;11052;43.338;25.502;2023-11-19T10:16:08;100705.50;;;9.06;100.00
2268;BME280;11052;43.338;25.502;2023-11-19T10:18:37;100702.00;;;9.08;100.00
2268;BME280;11052;43.338;25.502;2023-11-19T10:21:05;100715.94;;;9.01;100.00
2268;BME280;11052;43.338;25.502;2023-11-19T10:23:48;100702.41;;;8.85;100.00
2268;BME280;11052;43.338;25.502;2023-11-19T10:26:17;100696.03;;;9.05;100.00
2268;BME280;11052;43.338;25.502;2023-11-19T10:28:46;100684.31;;;9.33;100.00
2268;BME280;11052;43.338;25.502;2023-11-19T10:31:13;100687.41;;;9.52;100.00
2268;BME280;11052;43.338;25.502;2023-11-19T10:33:41;100691.19;;;9.77;100.00
2268;BME280;11052;43.338;25.502;2023-11-19T10:36:11;100682.84;;;10.05;100.00
2268;BME280;11052;43.338;25.502;2023-11-19T10:38:39;100690.25;;;10.23;100.00
2268;BME280;11052;43.338;25.502;2023-11-19T10:41:06;100692.06;;;10.20;100.00
2268;BME280;11052;43.338;25.502;2023-11-19T10:43:44;100689.63;;;10.10;100.00
2268;BME280;11052;43.338;25.502;2023-11-19T10:46:12;100691.34;;;10.11;100.00
2268;BME280;11052;43.338;25.502;2023-11-19T10:48:40;100679.19;;;10.13;100.00
2268;BME280;11052;43.338;25.502;2023-11-19T10:51:08;100673.16;;;10.13;100.00
2268;BME280;11052;43.338;25.502;2023-11-19T10:53:37;100671.72;;;10.00;100.00
2268;BME280;11052;43.338;25.502;2023-11-19T10:56:11;100674.41;;;9.95;100.00
2268;BME280;11052;43.338;25.502;2023-11-19T10:58:45;100687.84;;;10.12;100.00
2268;BME280;11052;43.338;25.502;2023-11-19T11:01:16;100676.84;;;10.03;100.00
2268;BME280;11052;43.338;25.502;2023-11-19T11:03:47;100676.00;;;10.02;100.00
2268;BME280;11052;43.338;25.502;2023-11-19T11:06:17;100674.88;;;10.14;100.00
2268;BME280;11052;43.338;25.502;2023-11-19T11:08:45;100674.81;;;10.17;100.00
2268;BME280;11052;43.338;25.502;2023-11-19T11:11:15;100668.53;;;10.29;100.00
2268;BME280;11052;43.338;25.502;2023-11-19T11:13:46;100669.03;;;10.43;100.00
2268;BME280;11052;43.338;25.502;2023-11-19T11:16:15;100666.56;;;10.38;100.00
2268;BME280;11052;43.338;25.502;2023-11-19T11:18:45;100660.63;;;10.35;100.00
2268;BME280;11052;43.338;25.502;2023-11-19T11:21:17;100650.34;;;10.30;100.00
2268;BME280;11052;43.338;25.502;2023-11-19T11:24:00;100661.50;;;10.34;100.00
2268;BME280;11052;43.338;25.502;2023-11-19T11:30:05;100672.28;;;9.74;100.00
2268;BME280;11052;43.338;25.502;2023-11-19T11:32:43;100685.78;;;9.46;100.00
2268;BME280;11052;43.338;25.502;2023-11-19T11:35:27;100678.44;;;9.25;100.00
2268;BME280;11052;43.338;25.502;2023-11-19T11:38:01;100687.13;;;9.21;100.00
2268;BME280;11052;43.338;25.502;2023-11-19T11:40:30;100676.00;;;9.17;100.00
2268;BME280;11052;43.338;25.502;2023-11-19T11:42:57;100669.28;;;9.07;100.00
2268;BME280;11052;43.338;25.502;2023-11-19T11:45:41;100662.03;;;9.26;100.00
2268;BME280;11052;43.338;25.502;2023-11-19T11:48:12;100660.28;;;9.28;100.00
2268;BME280;11052;43.338;25.502;2023-11-19T11:50:49;100668.00;;;9.30;100.00
2268;BME280;11052;43.338;25.502;2023-11-19T11:53:17;100670.03;;;9.12;100.00
2268;BME280;11052;43.338;25.502;2023-11-19T11:55:58;100655.53;;;9.04;100.00
2268;BME280;11052;43.338;25.502;2023-11-19T11:58:35;100648.84;;;8.94;100.00
2268;BME280;11052;43.338;25.502;2023-11-19T12:01:05;100656.06;;;8.73;100.00
2268;BME280;11052;43.338;25.502;2023-11-19T12:03:32;100660.25;;;8.80;100.00
2268;BME280;11052;43.338;25.502;2023-11-19T12:06:00;100654.91;;;8.91;100.00
2268;BME280;11052;43.338;25.502;2023-11-19T12:08:28;100657.91;;;9.16;100.00
2268;BME280;11052;43.338;25.502;2023-11-19T12:10:57;100657.72;;;9.27;100.00
2268;BME280;11052;43.338;25.502;2023-11-19T12:13:44;100641.31;;;9.28;100.00
2268;BME280;11052;43.338;25.502;2023-11-19T12:16:14;100644.50;;;9.40;100.00
2268;BME280;11052;43.338;25.502;2023-11-19T12:18:42;100641.03;;;9.41;100.00
2268;BME280;11052;43.338;25.502;2023-11-19T12:21:09;100642.72;;;9.44;100.00
2268;BME280;11052;43.338;25.502;2023-11-19T12:23:46;100643.34;;;9.53;100.00
2268;BME280;11052;43.338;25.502;2023-11-19T12:26:34;100641.03;;;9.41;100.00
2268;BME280;11052;43.338;25.502;2023-11-19T12:29:01;100644.53;;;9.39;100.00
2268;BME280;11052;43.338;25.502;2023-11-19T12:31:33;100638.53;;;9.37;100.00
2268;BME280;11052;43.338;25.502;2023-11-19T12:34:08;100630.53;;;9.49;100.00
2268;BME280;11052;43.338;25.502;2023-11-19T12:36:41;100632.94;;;9.57;100.00
2268;BME280;11052;43.338;25.502;2023-11-19T12:39:09;100626.94;;;9.54;100.00
2268;BME280;11052;43.338;25.502;2023-11-19T12:41:54;100625.84;;;9.66;100.00
2268;BME280;11052;43.338;25.502;2023-11-19T12:44:22;100628.97;;;9.82;100.00
2268;BME280;11052;43.338;25.502;2023-11-19T12:47:01;100623.97;;;9.73;100.00
2268;BME280;11052;43.338;25.502;2023-11-19T12:49:29;100617.94;;;9.72;100.00
2268;BME280;11052;43.338;25.502;2023-11-19T12:51:56;100611.69;;;9.82;100.00
2268;BME280;11052;43.338;25.502;2023-11-19T12:54:32;100615.34;;;9.72;100.00
2268;BME280;11052;43.338;25.502;2023-11-19T12:57:00;100606.59;;;9.78;100.00
2268;BME280;11052;43.338;25.502;2023-11-19T12:59:27;100593.75;;;9.73;100.00
2268;BME280;11052;43.338;25.502;2023-11-19T13:01:55;100581.72;;;9.71;100.00